Oriibu — JD2579 — position and weather

sailwx.info

Track history (hours):
 
Tides and Currents Weather Stations Pressure Air Temp Water Temp Dewpoint Dewpoint Depression Visibility Wind Speed Wind Dir Waves Ship Positions

Oriibu

Last reported at 2016-Aug-25 03:05 UTC. Time now 2016-Aug-31 07:57 UTC.
Position N 35°08' E 139°42'.

Length 75 m; draft 4.2 m.

MMSI: 431000426.

Date/timePositionNaut miles runAvg speedWind from/ knotsBaromVisibWave heightAir tempDewpointWater temp
2016-Aug-25 03:05N 35°08' E 139°42'712.4
2016-Aug-25 02:33N 35°14' E 139°46'1212.3
2016-Aug-25 01:34N 35°25' E 139°42'4 4.2
2016-Aug-25 00:32N 35°30' E 139°41'0 0.0
2016-Aug-24 23:34N 35°30' E 139°41'3 2.5
2016-Aug-24 22:32N 35°27' E 139°42'0 0.0
2016-Aug-24 21:32N 35°27' E 139°42'0 0.0
2016-Aug-24 20:32N 35°27' E 139°42'0 0.0
2016-Aug-24 19:32N 35°27' E 139°42'0 0.0
2016-Aug-24 18:32N 35°27' E 139°42'0 0.0
2016-Aug-24 17:32N 35°27' E 139°42'0 0.0
2016-Aug-24 16:32N 35°27' E 139°42'0 0.0
2016-Aug-24 15:32N 35°27' E 139°42'0 0.0
2016-Aug-24 14:32N 35°27' E 139°42'0 0.1
2016-Aug-24 13:32N 35°27' E 139°42'0 0.0
2016-Aug-24 12:29N 35°27' E 139°42'0 0.1
2016-Aug-24 11:32N 35°27' E 139°42'0 0.0
2016-Aug-24 10:29N 35°27' E 139°42'0 0.0
2016-Aug-24 09:32N 35°27' E 139°42'0 0.0
2016-Aug-24 08:29N 35°27' E 139°42'0 0.0
2016-Aug-24 07:32N 35°27' E 139°42'8 8.3
2016-Aug-24 06:33N 35°30' E 139°51'11 5.2
2016-Aug-24 04:30N 35°40' E 139°56'0 0.0
2016-Aug-24 03:30N 35°40' E 139°56'0 0.0
2016-Aug-24 02:30N 35°40' E 139°56'0 0.0
2016-Aug-24 01:30N 35°40' E 139°56'0 0.0
2016-Aug-24 00:30N 35°40' E 139°56'0 0.0
2016-Aug-23 23:24N 35°40' E 139°56'0 0.0
2016-Aug-23 22:30N 35°40' E 139°56'0 0.0
2016-Aug-23 21:30N 35°40' E 139°56'3 3.5
2016-Aug-23 20:31N 35°37' E 139°58'1111.6
2016-Aug-23 19:33N 35°28' E 139°50'1110.8
2016-Aug-23 18:33N 35°18' E 139°45'1010.4
2016-Aug-23 17:33N 35°08' E 139°45'  
Track history (hours):
 
Tides and Currents Weather Stations Pressure Air Temp Water Temp Dewpoint Dewpoint Depression Visibility Wind Speed Wind Dir Waves Ship Positions

Oriibu

Last reported at 2016-Aug-25 03:05 UTC. Time now 2016-Aug-31 07:57 UTC.
Position N 35°08' E 139°42'.

Length 75 m; draft 4.2 m.

MMSI: 431000426.

Date/timePositionNaut miles runAvg speedWind from/ knotsBaromVisibWave heightAir tempDewpointWater temp
2016-Aug-25 03:05N 35°08' E 139°42'712.4
2016-Aug-25 02:33N 35°14' E 139°46'1212.3
2016-Aug-25 01:34N 35°25' E 139°42'4 4.2
2016-Aug-25 00:32N 35°30' E 139°41'0 0.0
2016-Aug-24 23:34N 35°30' E 139°41'3 2.5
2016-Aug-24 22:32N 35°27' E 139°42'0 0.0
2016-Aug-24 21:32N 35°27' E 139°42'0 0.0
2016-Aug-24 20:32N 35°27' E 139°42'0 0.0
2016-Aug-24 19:32N 35°27' E 139°42'0 0.0
2016-Aug-24 18:32N 35°27' E 139°42'0 0.0
2016-Aug-24 17:32N 35°27' E 139°42'0 0.0
2016-Aug-24 16:32N 35°27' E 139°42'0 0.0
2016-Aug-24 15:32N 35°27' E 139°42'0 0.0
2016-Aug-24 14:32N 35°27' E 139°42'0 0.1
2016-Aug-24 13:32N 35°27' E 139°42'0 0.0
2016-Aug-24 12:29N 35°27' E 139°42'0 0.1
2016-Aug-24 11:32N 35°27' E 139°42'0 0.0
2016-Aug-24 10:29N 35°27' E 139°42'0 0.0
2016-Aug-24 09:32N 35°27' E 139°42'0 0.0
2016-Aug-24 08:29N 35°27' E 139°42'0 0.0
2016-Aug-24 07:32N 35°27' E 139°42'8 8.3
2016-Aug-24 06:33N 35°30' E 139°51'11 5.2
2016-Aug-24 04:30N 35°40' E 139°56'0 0.0
2016-Aug-24 03:30N 35°40' E 139°56'0 0.0
2016-Aug-24 02:30N 35°40' E 139°56'0 0.0
2016-Aug-24 01:30N 35°40' E 139°56'0 0.0
2016-Aug-24 00:30N 35°40' E 139°56'0 0.0
2016-Aug-23 23:24N 35°40' E 139°56'0 0.0
2016-Aug-23 22:30N 35°40' E 139°56'0 0.0
2016-Aug-23 21:30N 35°40' E 139°56'3 3.5
2016-Aug-23 20:31N 35°37' E 139°58'1111.6
2016-Aug-23 19:33N 35°28' E 139°50'1110.8
2016-Aug-23 18:33N 35°18' E 139°45'1010.4
2016-Aug-23 17:33N 35°08' E 139°45'  

Dump ship's entire track history